OVERALL Captain TEAM BIB # DIVISION DIVPLACE TIME PACE
1 George Tidmarsh TAHOE ELEVEN MILERS 4 ELITE 1 3:18:06 19:49
2 Todd Arris BAC JURASSIC PARK 5 ELITE 2 3:29:30 20:57
3 Douwe Yntema OLYMPIC CLUB A 1334 OPEN 1 3:35:12 21:32
4 Katie Glenn BAY AREA BABES III 303 WOMEN 240+ 1 3:36:37 21:40
5 Bill Mc Cracken TVM LOS CHULOS 609 MEN 180+ 1 3:37:41 21:47
6 Katherine Raatz #ONABOAT 104 WOMEN 114+ 1 3:39:00 21:54
7 James Kemp STANFORD MASTERS MEN'S 300 803 MEN 300+ 1 3:40:26 22:03
8 Erin Hunter THE FLOTSAM WARRIORS 1006 MIXED 180+ 1 3:43:22 22:21
9 Patrick Woodruff CATALINA WINE MIXER 7 ELITE 3 3:46:54 22:42
10 Cameron Hamilton FLANAGAN'S SHENANIGANS 605 MEN 180+ 2 3:47:58 22:48
11 James Collins JURASSIC PARK 2: THE LOST WORLD 708 MEN 240+ 1 3:51:08 23:07
12 Darryl Johnson TEAM JOHNSON 802 MEN 300+ 2 3:51:34 23:10
13 Luane Rowe TEAM FINIS 3 ELITE 4 3:51:44 23:11
14 Peter Wong TEAM SWIMSPRAY 8 ELITE 5 3:51:57 23:12
15 Mary Ann Nygren TVM- TIM'S OVERBOARD 1010 MIXED 180+ 2 3:52:17 23:14
16 Jillian Silva TEACH ME HOW TO DOUGIE 1013 MIXED 180+ 3 3:53:11 23:20
17 Thomas Adams KRISSY AND THE MANIMALS 1301 OPEN 2 3:53:20 23:20
18 Kurt Oeler TOC TAM HS 720 MEN 240+ 2 3:53:29 23:21
19 Brian Villarreal NOT FROM CONCENTRATE 612 MEN 180+ 3 3:55:05 23:31
20 Michael Dempsey MICHIGAN BIG CHILLERS 709 MEN 240+ 3 3:55:21 23:33
21 Eric Foster TEAM ANXIETY 604 MEN 180+ 4 3:55:52 23:36
22 Brian Rodde KNAPP TIME 1326 OPEN 3 3:56:40 23:40
23 David Holmes ROCK BOTTOM 1317 OPEN 4 3:56:53 23:42
24 Mike Keck TOC FRANKIE SAYS RELAX 714 MEN 240+ 4 3:57:03 23:43
25 Steve Pratt BAC LEFTOVERS 1206 MIXED 300+ 1 3:57:27 23:45
26 Brian Mirkovich POOHSTRONG V 2 ELITE 6 3:57:43 23:47
27 Timothy O'Mara TEAM OMARA 1011 MIXED 180+ 4 3:58:59 23:54
28 Tim Broderick STANFORD MASTERS' 60S 1600 MEN 360+ 1 3:59:35 23:58
29 Egan Gans BONER JAMS 502 MEN 114+ 1 3:59:41 23:59
30 Erin Grimm SIXY LADIES 102 WOMEN 114+ 2 4:00:02 24:01
31 Sean Allen ARDEN HILLS A TEAM 1303 OPEN 5 4:00:27 24:03
32 Amy Sitzmann SWIMMIN' SHARKIES 1014 MIXED 180+ 5 4:00:56 24:06
33 Danielle Garcia IRON BABES 2 101 WOMEN 114+ 3 4:01:50 24:11
34 John Schwenger COLD MOMENTUM 724 MEN 240+ 5 4:02:11 24:14
35 Glenn Abersold TVM - THE PHAT AND THE FURIOUS 1300 OPEN 6 4:02:52 24:18
36 Leif Calvin BONEHEADS 706 MEN 240+ 6 4:04:06 24:25
37 Jim McDonald CLUB HOT TUBBIES AND HOTTIES 1203 MIXED 300+ 2 4:05:52 24:36
38 John Harlow NBA ORIGINALS 1313 OPEN 7 4:05:57 24:36
39 Naoko Watanabe TOC WOMEN 180+ 208 WOMEN 180+ 1 4:06:18 24:38
40 David Donovan 6 GUYS...1 BOAT 711 MEN 240+ 7 4:06:54 24:42
41 Kevin Platshon TEAM WADDLEBIRD 506 MEN 114+ 2 4:06:59 24:42
42 Bruce Bower MENLO MAD DOGS 702 MEN 240+ 8 4:07:10 24:43
43 Richard Burns TAHOEPAIS 1201 MIXED 300+ 3 4:07:33 24:46
44 Scott Blasingame SOFA KING AWESOME 1001 MIXED 180+ 6 4:07:34 24:46
45 Tyler Krikorian PIES DO TAHOE 608 MEN 180+ 5 4:07:36 24:46
46 Josh Mix TEAM DELTA BEAVER 1324 OPEN 8 4:07:49 24:47
47 Ryan McCarthy THE CHIEFS 504 MEN 114+ 3 4:07:55 24:48
48 Bryan Schnugg FIVE BEARS AND A HAT 508 MEN 114+ 4 4:08:09 24:49
49 David Stewart VACAVILLE SWIM CLUB DEEP SIX 1207 MIXED 300+ 4 4:08:15 24:50
50 Amanda Mercer MICHIGANDER GALS 204 WOMEN 180+ 2 4:08:36 24:52
51 Meghan O'Brien SWIMHOW.COM 1325 OPEN 9 4:09:05 24:55
52 Mike Sample HWBF IV 507 MEN 114+ 5 4:09:07 24:55
53 Bonnie Benjamin TAKIN' TESSIE II 1019 MIXED 240+ 1 4:09:26 24:57
54 Loren Pearson TVM BAD ASS LIME A RITA BOAT! 901 MIXED 114+ 1 4:10:28 25:03
55 Paula James SWIMMING STRAIGHT TO THE FINISH LIN 1113 MIXED 240+ 2 4:10:53 25:06
56 Cindy Hajost WATER WE THINKING? 305 WOMEN 240+ 2 4:12:15 25:14
57 Annette Chinn FASTER THAN DRIFTWOOD 1306 OPEN 10 4:12:55 25:18
58 Thomas Anderson SHIVERING TIMBERS VII 1333 OPEN 11 4:13:51 25:24
59 Steve Toschi TVM- FELLOWSHIP OF RACHAEL'S RING 1210 MIXED 300+ 5 4:15:12 25:32
60 Celeste Miller TAHOE BLUE GOOSE BUMPS 1204 MIXED 300+ 6 4:16:06 25:37
61 Tara Martin LADY PRINCETON TIGERS 203 WOMEN 180+ 3 4:16:33 25:40
62 Abby Pledger HIGH OCTANE BABES 205 WOMEN 180+ 4 4:17:14 25:44
63 Deborah McFerron HYPOTHERMIC HEAT 307 WOMEN 240+ 3 4:18:08 25:49
64 Colin Murray LOS TIBURONES LOCOS 719 MEN 240+ 9 4:18:15 25:50
65 Tom Schatz COCKED AGAIN XVIII 1328 OPEN 12 4:18:22 25:51
66 Caren Mc Namara TITS OF STEEL 406 WOMEN 300+ 1 4:18:24 25:51
67 Sean Flynn FLOATING HIPPOS 603 MEN 180+ 6 4:18:38 25:52
68 Randy Franke ALLIGATOR GAR 1311 OPEN 13 4:19:58 26:00
69 Bill Haedrich HAPPY 60 HAEDRICH 712 MEN 240+ 10 4:19:58 26:00
71 Lee Anne Ghimenti SEYMOUR MOON AND THE SWINGING TUNA' 1 ELITE 7 4:20:23 26:03
70 Jon Kenyon #FATGREENTIGERS 607 MEN 180+ 7 4:20:23 26:03
72 Lee Ryan SHALLOW END LIFEGUARDS 611 MEN 180+ 8 4:20:50 26:05
73 Patti Bauernfeind SKIP AND GO NAKED 1200 MIXED 300+ 7 4:21:02 26:07
74 Mark Lutzker ANGRIER TUNAS 1322 OPEN 14 4:22:03 26:13
75 Jenna Silva TVM - MAN OVERBOARD 1329 OPEN 15 4:23:05 26:19
76 Walter Tuholski TEAM TUHOLSKI 1016 MIXED 180+ 7 4:23:11 26:20
77 Alexander Niehenke LANE 8 610 MEN 180+ 9 4:23:23 26:21
78 Monica Cathcart JUST FOR JUSTIN I 1105 MIXED 240+ 3 4:24:17 26:26
79 James Mayfield TRANS GENERALS 503 MEN 114+ 6 4:24:24 26:27
80 Ted Mulvaney DBAFP(A) 1115 MIXED 240+ 4 4:26:09 26:37
81 Dan Benoit TEAM BENOIT 701 MEN 240+ 11 4:27:18 26:44
82 David Summa TOO BAD ASS TO FAIL 1117 MIXED 240+ 5 4:27:46 26:47
83 Griffith Helfrich THE PIRATES 1315 OPEN 16 4:29:40 26:58
84 Denise Edwards SUITS OPTIONAL 301 WOMEN 240+ 4 4:30:58 27:06
85 Patrick Lee TAHOE TRENCHERS 716 MEN 240+ 12 4:31:07 27:07
86 Alli Lathrope CMS SWAMMERS 103 WOMEN 114+ 4 4:33:22 27:21
87 Stephen June TEAM JUNE 606 MEN 180+ 10 4:33:31 27:22
88 Alex Taft FAT ALEX AND FRIENDS! 1118 MIXED 240+ 6 4:33:50 27:23
89 David Hoover AGED TO PERFECTION 1202 MIXED 300+ 8 4:34:27 27:27
90 Steve Hern THE FOLSOM FAB SIX 1112 MIXED 240+ 7 4:35:05 27:31
91 Frank Elliott SAN MATEO MASTERS 360+ 1601 MEN 360+ 2 4:35:15 27:32
92 Gabriel Speyer TSUNAMI TRES 725 MEN 240+ 13 4:35:21 27:33
93 Andrew Steinheimer ROCKY POINT RACERS 1018 MIXED 180+ 8 4:36:27 27:39
94 Forrest Christo WE TALKIN' ABOUT PRACTICE? I'M TALK 1307 OPEN 17 4:36:57 27:42
96 Stephen Sampson TESSIE'S WORST NIGHTMARE 902 MIXED 114+ 2 4:37:22 27:45
95 Doug Overman TEAM SWIM CAMP 721 MEN 240+ 14 4:37:22 27:45
97 Joe Dowd MIKE. MIKE. MIKE. WHAT DAY IS IT? 1309 OPEN 18 4:37:35 27:46
98 Deborah Newton OFFSHORE ANGRY TUNA 1701 MIXED 360+ 1 4:37:46 27:47
99 Ouida Liu AQUA BOGGIE 1321 OPEN 19 4:38:36 27:52
101 Michelle Cherrick NORTH BAY NAUTIGALS 1305 OPEN 20 4:38:48 27:53
100 Amy Thompson TOC THOMPSON 1120 MIXED 240+ 8 4:38:48 27:53
102 Emily Cosse BLACK AND WHITE TAILED BALLERS 200 WOMEN 180+ 5 4:39:38 27:58
103 Scott Lyle BLUE FOOTERS 1413 JUST FOR FUN 1 4:39:59 28:00
104 Matt Harrington BEERS BEFORE NOON 713 MEN 240+ 15 4:40:04 28:01
105 Lucy Johns SLIPPERY WHEN WET 1318 OPEN 21 4:40:21 28:03
106 John Clay SDC 1403 JUST FOR FUN 2 4:40:23 28:03
107 Dina Hall TRANS TAHOE TESSIE TEMPRESSES 306 WOMEN 240+ 5 4:40:32 28:04
108 Rebecca Corson TEAM CINIMINI 1404 JUST FOR FUN 3 4:40:38 28:04
109 Roger Cassidy MIGHTY MUDSHARKS 1104 MIXED 240+ 9 4:41:11 28:08
110 Melissa Rhoads SUPER HEROES IN TRAINING AKA SHIT 206 WOMEN 180+ 6 4:42:05 28:13
111 Kendra Ksiazek SALTY BUT NICE 1008 MIXED 180+ 9 4:42:14 28:14
112 William Sullivan CAPITAL PUNISHMENT 1330 OPEN 22 4:42:36 28:16
113 Michael Scott NOT TOO OLD, WITH KIDS 1416 JUST FOR FUN 4 4:42:49 28:17
114 Brandon Drew C U NEXT TUESDAY 1109 MIXED 240+ 10 4:42:53 28:18
115 Lauren Davis THE FIRE-BREATHING DRAGONS 1405 JUST FOR FUN 5 4:43:07 28:19
116 Rachel Wills FIRE BREATHING RUBBER DUCKIES 1017 MIXED 180+ 10 4:43:08 28:19
117 Stephen Andron STAGASIM 500 MEN 114+ 7 4:43:15 28:20
118 Elizabeth Glass CHUNKY DUNKERS 1110 MIXED 240+ 11 4:43:43 28:23
119 Larry Countryman JUST FOR JUSTIN II 1107 MIXED 240+ 12 4:43:46 28:23
120 Steve Carlson CHANNEL BOUND 707 MEN 240+ 16 4:43:55 28:24
121 Jock Christie SLEEPY HOLLOW SLOWPOKES 1336 OPEN 23 4:45:09 28:31
122 Ted Augustine TCG I 501 MEN 114+ 8 4:45:52 28:36
123 Don Tatzin OAKWOOD TRUNKS 1604 MEN 360+ 3 4:46:45 28:41
124 Regina Roach CAL-TEXETTES 105 WOMEN 114+ 5 4:47:43 28:47
125 Laurie Lewis BAY BROWNBACKS 405 WOMEN 300+ 2 4:47:54 28:48
126 Michelle Johnson KEEP STROKING SWEETIE...WE'RE ALMOS 1319 OPEN 24 4:48:01 28:49
127 Peter Giacalone SAVAGES 1408 JUST FOR FUN 6 4:48:22 28:51
128 James Cotta LODI MASTERS 1308 OPEN 25 4:48:33 28:52
129 Carol Ogilvie AQUA NUTS 1702 MIXED 360+ 2 4:48:56 28:54
130 Alisa Gray GRAY TEAM 201 WOMEN 180+ 7 4:49:02 28:55
131 Nicole Gardner BAD ASS BABES 302 WOMEN 240+ 6 4:49:07 28:55
132 Jamie Firth SIX PACK 100 WOMEN 114+ 6 4:50:07 29:01
133 Eric Beckert TRUCKEE SWIMMERS 1400 JUST FOR FUN 7 4:50:22 29:03
134 Anthony Bourke SHARKS AND MINNOWS 1102 MIXED 240+ 13 4:52:10 29:13
135 Chelsea Siciliano THE FLABONGOS 207 WOMEN 180+ 8 4:52:11 29:14
136 Nina Natina TEAM TANGO 1116 MIXED 240+ 14 4:52:21 29:15
137 Edward Rudloff RUDY PLUS 5 1603 MEN 360+ 4 4:53:15 29:20
138 Paul Stock TIE DYE TORPEDO'S 1208 MIXED 300+ 9 4:53:41 29:23
139 Mark Houghton MOUNTAIN HOUGHTONS - SOULSBYVILLE 7 1421 JUST FOR FUN 8 4:54:05 29:25
140 Evan Lieginger TEAM LEIGINGER 1009 MIXED 180+ 11 4:54:18 29:26
141 Chuck Kight BOAT FULL OF SEMAN COMES AGAIN 1602 MEN 360+ 5 4:54:53 29:30
142 Jeffrey Lally BCP THRASHERS 715 MEN 240+ 17 4:54:57 29:30
143 James Kirchberg UNHEALTHY DRINKING BEHAVIOR 1007 MIXED 180+ 12 4:55:06 29:31
144 Ali Hartwell FRIED ZUCCHINI STICKS 1005 MIXED 180+ 13 4:55:44 29:35
145 Karen Drucker EXTREME MODERATION 1406 JUST FOR FUN 9 4:56:09 29:37
146 Daniel Dell'osso CLAREMONT OVER UNDERS 1108 MIXED 240+ 15 4:56:35 29:40
147 Kieron Leslie TSUNAMI'S MILE HIGH CLUB 717 MEN 240+ 18 4:56:38 29:40
148 George Giles KEEP OUR TAB OPEN 1409 JUST FOR FUN 10 4:56:42 29:41
149 James Murphy LAPIDIBUS 718 MEN 240+ 19 4:57:02 29:43
150 Tony Stais TAHOEBLUES 726 MEN 240+ 20 4:57:02 29:43
151 Fernando Bravo BRAWNY BEACH BOYS (PCCM) 703 MEN 240+ 21 4:57:24 29:45
152 Chris Beeman HOMEWOOD HOMEYS 1000 MIXED 180+ 14 4:57:43 29:47
153 Michael Brown CALIFORNIA RAISINS 705 MEN 240+ 22 4:57:46 29:47
154 Geoffrey Koblick 2ND LEG NAKED NBA 1320 OPEN 26 4:58:32 29:52
155 Joseph Ferrero (USED TO BE) EARLY RISERS 800 MEN 300+ 3 5:00:24 30:03
156 Lindsay Rodgers LAKE DOLPHINS 1327 OPEN 27 5:00:37 30:04
157 Marcy Michael BIG TAHUNAS 407 WOMEN 300+ 3 5:01:23 30:09
158 Bill Hammond WILL SWIM FOR PIE 1111 MIXED 240+ 16 5:03:00 30:18
159 Patrick Devlin LOVE D'EM HANDLES 710 MEN 240+ 23 5:04:58 30:30
160 Henry Chan 12,000 STROKES 1304 OPEN 28 5:07:51 30:48
161 Ralph Brott GOLDEN GILLED WATER CHEETAHS 1103 MIXED 240+ 17 5:08:03 30:49
162 Christi Wilson BRAIN FREEZE 1419 JUST FOR FUN 11 5:09:41 30:59
163 Joseph Omran PIGBUSTERS 1205 MIXED 300+ 10 5:10:42 31:05
164 John Steinmetz LAKE TAHOE MASTER 1417 JUST FOR FUN 12 5:11:20 31:08
165 Stephanie Lapachet WINERS 1412 JUST FOR FUN 13 5:11:22 31:09
166 Ian Bannister GRAPES AND BABY CARROTS 601 MEN 180+ 11 5:11:30 31:09
167 James Ernst TAPER TOMORROW 1310 OPEN 29 5:12:15 31:14
168 Mark Kniesche TRANCE TAHOE V 1411 JUST FOR FUN 14 5:12:17 31:14
169 Paul Akin A- TEAM 600 MEN 180+ 12 5:12:26 31:15
170 Thomas Murphy FLYING PENQUINS 1414 JUST FOR FUN 15 5:12:52 31:18
171 Janet Beegle FROSTITS 402 WOMEN 300+ 4 5:12:55 31:18
172 Candace Wilson HERE WE GO AGAIN! 1212 MIXED 300+ 11 5:13:32 31:22
173 Drew Sanders THE OLD GUARD 723 MEN 240+ 24 5:14:02 31:25
174 Aidan Brogan BROGAN AND SON SPLASHERS 704 MEN 240+ 25 5:14:18 31:26
175 Julie Oliver LAMORINDA LADIES 308 WOMEN 240+ 7 5:14:22 31:27
176 David Robin 6 PHLOTON TORPEDOES 722 MEN 240+ 26 5:15:30 31:33
177 John Devine THE CITY SHARKS 1121 MIXED 240+ 18 5:16:56 31:42
178 Jon Stone A FAMILY STONE 1015 MIXED 180+ 15 5:17:48 31:47
179 Todd Tuescher 6 CLYDESDALES AND NO JOCKIES 728 MEN 240+ 27 5:17:58 31:48
180 Matthew Tarzon FLOATERS 727 MEN 240+ 28 5:18:05 31:49
181 Holly Tambling LADERA OAKS LAKERS-LOL! 1418 JUST FOR FUN 16 5:21:32 32:10
182 Kirsten Plomgren MORNING HOTTIES 309 WOMEN 240+ 8 5:21:45 32:11
183 Jeff Temple ANGRY DOLPHINS 1119 MIXED 240+ 19 5:22:56 32:18
184 Greg Geibel GUPPY CLUB 1407 JUST FOR FUN 17 5:25:16 32:32
185 Lisa Vencill MISFITS 1211 MIXED 300+ 12 5:25:27 32:33
186 Beverly Blach JUST KEEP SWIMMING 1401 JUST FOR FUN 18 5:25:37 32:34
187 Chips Conlon IRISH LADS AND LASSIES 1002 MIXED 180+ 16 5:25:58 32:36
188 Kerri Hansen TVM-FROZEN PARTS 1004 MIXED 180+ 17 5:26:50 32:41
189 Angelina Calderone PINK TACOS 106 WOMEN 114+ 7 5:28:36 32:52
190 J Patrick Mc Carthy AU AU 1114 MIXED 240+ 20 5:29:18 32:56
191 Asha Allen-Roth KELLER COVE SEA OTTERS 300 WOMEN 240+ 9 5:30:33 33:04
192 Shelly Taylor TEAM RIPTIDE 1331 OPEN 30 5:31:02 33:07
193 Lindsey Kalkbrenner THIRD TIME'S A SASS! 202 WOMEN 180+ 9 5:33:07 33:19
194 Jenny Frost LUNCH FOR THE SEALIONS 1003 MIXED 180+ 18 5:33:07 33:19
195 Seth Chanin KEEP TAHOE BLUE 900 MIXED 114+ 3 5:34:04 33:25
196 Ann Kight THE TAHOE FLOW HO'S 404 WOMEN 300+ 5 5:36:29 33:39
197 James Aicardi WET BANDITS 1302 OPEN 31 5:37:46 33:47
198 James Safranek X-RAYTED PHLOTONS 1415 JUST FOR FUN 19 5:38:36 33:52
199 Michael Hecker BUCKET LIST 1410 JUST FOR FUN 20 5:38:57 33:54
200 Patrick Reid BEER VIEW MIRROR 1012 MIXED 180+ 19 5:40:05 34:01
201 Kate Martin JUST KEEP SWIMMING 1323 OPEN 32 5:42:18 34:14
202 Maggie Tevis SUN & FUN 1209 MIXED 300+ 13 5:42:55 34:18
203 Liz Tebbutt TAHOE SWAVENGIN SWASHBUCKLERS 1332 OPEN 33 5:45:37 34:34
204 David Harris PERSISTENCE 1314 OPEN 34 5:48:37 34:52
205 Beth Goldstein GILL GALS 304 WOMEN 240+ 10 5:49:25 34:57